Kullen, Sweden

3:55 PM CEST on August 26, 2016 (GMT +0200)
Höganäs | | Change Station

Elev 0 ft 56.25 °N, 12.53 °E | Updated 5 seconds ago

Clear
Clear
77.0 °F
Feels Like 79 °F
N
1.9
Wind Variable Wind from South
Gusts 5.6 mph

Today
High -- | Low -- °F
--% Chance of Precip.
Yesterday
High -- | Low -- °F
Precip. -- in
Pressure 29.92 in
Visibility -9999.0 miles
Clouds
Heat Index 79 °F
Dew Point 66 °F
Humidity 68%
Rainfall 0.00 in
Snow Depth Not available.
6:02 AM 8:19 PM
Waning Crescent, 34% visible
METAR ESTA 261350Z 16010KT CAVOK 28/18 Q1013
Pressure 29.92 in
Visibility -9999.0 miles
Clouds
Heat Index 79 °F
Dew Point 66 °F
Humidity 68%
Rainfall 0.00 in
Snow Depth Not available.
6:02 AM 8:19 PM
Waning Crescent, 34% visible
METAR ESTA 261350Z 16010KT CAVOK 28/18 Q1013

10-Day Weather Forecast

×

Almanac

Astronomy

Aug. 26, 2016 Rise Set
Actual Time
Civil Twilight
Nautical Twilight
Astronomical Twilight
Moon
Length of Visible Light
Length of Day
Tomorrow will be .
, % of the Moon is Illuminated

Today's Extremes

Country Highs Country Lows

Community

WunderPhotos

Upload Photos

1,935,084 photos uploaded!

WunderBlog® & News

Nearby

Air Quality

  Air Quality AQ Index Pollutant
Not available.

Snow Depth

Station Depth Elevation

Earthquake Activity

City Distance Mag. Time & Date
Minimum magnitude displayed is 2.5.

Coastal Water Temperatures

Place Temperature

Stations

Nearby Weather Stations

Station Location Temp. Windchill Dew Point Humidity Wind Precip. Elev Updated Type